sensor_id;sensor_type;location;lat;lon;timestamp;P1;durP1;ratioP1;P2;durP2;ratioP2
4732;SDS011;2380;53.668;10.008;2023-08-12T00:00:06;6.40;;;3.80;;
4732;SDS011;2380;53.668;10.008;2023-08-12T00:02:41;6.70;;;4.13;;
4732;SDS011;2380;53.668;10.008;2023-08-12T00:05:12;6.83;;;3.90;;
4732;SDS011;2380;53.668;10.008;2023-08-12T00:07:42;5.83;;;4.10;;
4732;SDS011;2380;53.668;10.008;2023-08-12T00:10:12;8.00;;;3.87;;
4732;SDS011;2380;53.668;10.008;2023-08-12T00:12:42;7.03;;;4.63;;
4732;SDS011;2380;53.668;10.008;2023-08-12T00:15:12;15.23;;;8.10;;
4732;SDS011;2380;53.668;10.008;2023-08-12T00:17:44;8.70;;;5.10;;
4732;SDS011;2380;53.668;10.008;2023-08-12T00:20:14;9.67;;;4.47;;
4732;SDS011;2380;53.668;10.008;2023-08-12T00:22:44;8.70;;;3.93;;
4732;SDS011;2380;53.668;10.008;2023-08-12T00:25:14;6.37;;;4.40;;
4732;SDS011;2380;53.668;10.008;2023-08-12T00:27:44;4.97;;;3.80;;
4732;SDS011;2380;53.668;10.008;2023-08-12T00:30:14;10.20;;;6.00;;
4732;SDS011;2380;53.668;10.008;2023-08-12T00:32:46;7.73;;;5.83;;
4732;SDS011;2380;53.668;10.008;2023-08-12T00:35:16;6.10;;;4.80;;
4732;SDS011;2380;53.668;10.008;2023-08-12T00:37:46;7.40;;;4.10;;
4732;SDS011;2380;53.668;10.008;2023-08-12T00:40:18;6.80;;;4.57;;
4732;SDS011;2380;53.668;10.008;2023-08-12T00:42:48;5.93;;;4.13;;
4732;SDS011;2380;53.668;10.008;2023-08-12T00:45:17;7.50;;;4.67;;
4732;SDS011;2380;53.668;10.008;2023-08-12T00:47:49;11.07;;;6.00;;
4732;SDS011;2380;53.668;10.008;2023-08-12T00:50:19;5.73;;;4.00;;
4732;SDS011;2380;53.668;10.008;2023-08-12T00:52:49;8.30;;;3.90;;
4732;SDS011;2380;53.668;10.008;2023-08-12T00:55:19;15.83;;;4.00;;
4732;SDS011;2380;53.668;10.008;2023-08-12T00:57:49;6.90;;;4.03;;
4732;SDS011;2380;53.668;10.008;2023-08-12T01:00:19;6.23;;;3.83;;
4732;SDS011;2380;53.668;10.008;2023-08-12T01:02:53;7.40;;;3.83;;
4732;SDS011;2380;53.668;10.008;2023-08-12T01:05:25;5.37;;;3.60;;
4732;SDS011;2380;53.668;10.008;2023-08-12T01:07:54;6.30;;;3.70;;
4732;SDS011;2380;53.668;10.008;2023-08-12T01:10:24;5.20;;;3.80;;
4732;SDS011;2380;53.668;10.008;2023-08-12T01:12:59;8.17;;;3.73;;
4732;SDS011;2380;53.668;10.008;2023-08-12T01:15:34;6.40;;;4.00;;
4732;SDS011;2380;53.668;10.008;2023-08-12T01:18:06;6.10;;;4.07;;
4732;SDS011;2380;53.668;10.008;2023-08-12T01:20:36;6.57;;;4.00;;
4732;SDS011;2380;53.668;10.008;2023-08-12T01:23:10;5.77;;;3.90;;
4732;SDS011;2380;53.668;10.008;2023-08-12T01:25:42;14.83;;;4.10;;
4732;SDS011;2380;53.668;10.008;2023-08-12T01:28:12;10.20;;;4.27;;
4732;SDS011;2380;53.668;10.008;2023-08-12T01:30:44;7.70;;;3.53;;
4732;SDS011;2380;53.668;10.008;2023-08-12T01:33:19;4.53;;;2.90;;
4732;SDS011;2380;53.668;10.008;2023-08-12T01:35:52;9.53;;;4.23;;
4732;SDS011;2380;53.668;10.008;2023-08-12T01:38:26;6.87;;;3.77;;
4732;SDS011;2380;53.668;10.008;2023-08-12T01:40:56;7.60;;;3.87;;
4732;SDS011;2380;53.668;10.008;2023-08-12T01:43:27;8.17;;;5.17;;
4732;SDS011;2380;53.668;10.008;2023-08-12T01:45:58;8.73;;;4.37;;
4732;SDS011;2380;53.668;10.008;2023-08-12T01:48:28;8.93;;;3.83;;
4732;SDS011;2380;53.668;10.008;2023-08-12T01:50:57;12.20;;;4.37;;
4732;SDS011;2380;53.668;10.008;2023-08-12T01:53:30;5.07;;;3.60;;
4732;SDS011;2380;53.668;10.008;2023-08-12T01:55:59;6.90;;;3.90;;
4732;SDS011;2380;53.668;10.008;2023-08-12T01:58:29;10.87;;;4.27;;
4732;SDS011;2380;53.668;10.008;2023-08-12T02:00:59;7.60;;;4.80;;
4732;SDS011;2380;53.668;10.008;2023-08-12T02:03:28;5.50;;;4.10;;
4732;SDS011;2380;53.668;10.008;2023-08-12T02:05:58;5.93;;;4.13;;
4732;SDS011;2380;53.668;10.008;2023-08-12T02:08:30;10.33;;;5.23;;
4732;SDS011;2380;53.668;10.008;2023-08-12T02:11:00;6.53;;;4.23;;
4732;SDS011;2380;53.668;10.008;2023-08-12T02:13:29;7.20;;;4.80;;
4732;SDS011;2380;53.668;10.008;2023-08-12T02:15:59;7.80;;;3.80;;
4732;SDS011;2380;53.668;10.008;2023-08-12T02:18:29;7.70;;;4.17;;
4732;SDS011;2380;53.668;10.008;2023-08-12T02:20:58;7.10;;;3.80;;
4732;SDS011;2380;53.668;10.008;2023-08-12T02:23:31;11.07;;;6.33;;
4732;SDS011;2380;53.668;10.008;2023-08-12T02:26:01;6.40;;;4.70;;
4732;SDS011;2380;53.668;10.008;2023-08-12T02:28:31;5.73;;;3.40;;
4732;SDS011;2380;53.668;10.008;2023-08-12T02:31:01;8.90;;;3.80;;
4732;SDS011;2380;53.668;10.008;2023-08-12T02:33:30;5.87;;;4.00;;
4732;SDS011;2380;53.668;10.008;2023-08-12T02:36:00;6.30;;;3.60;;
4732;SDS011;2380;53.668;10.008;2023-08-12T02:38:32;6.80;;;3.77;;
4732;SDS011;2380;53.668;10.008;2023-08-12T02:41:02;6.70;;;4.00;;
4732;SDS011;2380;53.668;10.008;2023-08-12T02:43:31;7.70;;;4.07;;
4732;SDS011;2380;53.668;10.008;2023-08-12T02:46:01;14.27;;;6.43;;
4732;SDS011;2380;53.668;10.008;2023-08-12T02:48:31;12.53;;;6.97;;
4732;SDS011;2380;53.668;10.008;2023-08-12T02:51:00;10.73;;;7.00;;
4732;SDS011;2380;53.668;10.008;2023-08-12T02:53:33;6.27;;;4.50;;
4732;SDS011;2380;53.668;10.008;2023-08-12T02:56:03;8.77;;;5.00;;
4732;SDS011;2380;53.668;10.008;2023-08-12T02:58:33;5.10;;;3.23;;
4732;SDS011;2380;53.668;10.008;2023-08-12T03:01:04;7.70;;;4.10;;
4732;SDS011;2380;53.668;10.008;2023-08-12T03:03:34;8.10;;;3.20;;
4732;SDS011;2380;53.668;10.008;2023-08-12T03:06:04;6.77;;;4.87;;
4732;SDS011;2380;53.668;10.008;2023-08-12T03:08:36;6.50;;;3.87;;
4732;SDS011;2380;53.668;10.008;2023-08-12T03:11:06;7.30;;;4.10;;
4732;SDS011;2380;53.668;10.008;2023-08-12T03:13:35;4.20;;;3.07;;
4732;SDS011;2380;53.668;10.008;2023-08-12T03:16:08;25.20;;;12.50;;
4732;SDS011;2380;53.668;10.008;2023-08-12T03:18:42;128.03;;;64.33;;
4732;SDS011;2380;53.668;10.008;2023-08-12T03:21:12;68.57;;;33.30;;
4732;SDS011;2380;53.668;10.008;2023-08-12T03:23:44;38.60;;;20.60;;
4732;SDS011;2380;53.668;10.008;2023-08-12T03:26:14;38.17;;;22.30;;
4732;SDS011;2380;53.668;10.008;2023-08-12T03:28:43;64.37;;;36.87;;
4732;SDS011;2380;53.668;10.008;2023-08-12T03:31:13;23.80;;;13.03;;
4732;SDS011;2380;53.668;10.008;2023-08-12T03:33:43;34.03;;;20.70;;
4732;SDS011;2380;53.668;10.008;2023-08-12T03:36:12;12.87;;;8.00;;
4732;SDS011;2380;53.668;10.008;2023-08-12T03:38:45;13.30;;;7.97;;
4732;SDS011;2380;53.668;10.008;2023-08-12T03:41:14;9.73;;;4.70;;
4732;SDS011;2380;53.668;10.008;2023-08-12T03:43:44;12.73;;;5.57;;
4732;SDS011;2380;53.668;10.008;2023-08-12T03:46:13;6.37;;;4.90;;
4732;SDS011;2380;53.668;10.008;2023-08-12T03:48:43;6.53;;;4.60;;
4732;SDS011;2380;53.668;10.008;2023-08-12T03:51:13;20.93;;;13.03;;
4732;SDS011;2380;53.668;10.008;2023-08-12T03:53:45;21.70;;;13.63;;
4732;SDS011;2380;53.668;10.008;2023-08-12T03:56:15;14.10;;;8.43;;
4732;SDS011;2380;53.668;10.008;2023-08-12T03:58:45;13.57;;;6.40;;
4732;SDS011;2380;53.668;10.008;2023-08-12T04:01:15;13.37;;;6.23;;
4732;SDS011;2380;53.668;10.008;2023-08-12T04:03:44;6.97;;;4.80;;
4732;SDS011;2380;53.668;10.008;2023-08-12T04:06:14;11.23;;;5.73;;
4732;SDS011;2380;53.668;10.008;2023-08-12T04:08:46;10.40;;;4.60;;
4732;SDS011;2380;53.668;10.008;2023-08-12T04:11:16;6.43;;;3.90;;
4732;SDS011;2380;53.668;10.008;2023-08-12T04:13:45;8.47;;;4.83;;
4732;SDS011;2380;53.668;10.008;2023-08-12T04:16:15;5.53;;;4.27;;
4732;SDS011;2380;53.668;10.008;2023-08-12T04:18:45;7.50;;;4.77;;
4732;SDS011;2380;53.668;10.008;2023-08-12T04:21:15;9.10;;;5.13;;
4732;SDS011;2380;53.668;10.008;2023-08-12T04:23:47;7.47;;;4.67;;
4732;SDS011;2380;53.668;10.008;2023-08-12T04:26:16;8.00;;;3.93;;
4732;SDS011;2380;53.668;10.008;2023-08-12T04:28:46;6.20;;;3.80;;
4732;SDS011;2380;53.668;10.008;2023-08-12T04:31:16;8.77;;;5.10;;
4732;SDS011;2380;53.668;10.008;2023-08-12T04:33:45;7.83;;;4.87;;
4732;SDS011;2380;53.668;10.008;2023-08-12T04:36:15;13.17;;;4.60;;
4732;SDS011;2380;53.668;10.008;2023-08-12T04:38:48;10.13;;;6.30;;
4732;SDS011;2380;53.668;10.008;2023-08-12T04:41:17;8.83;;;5.40;;
4732;SDS011;2380;53.668;10.008;2023-08-12T04:43:50;7.93;;;4.80;;
4732;SDS011;2380;53.668;10.008;2023-08-12T04:46:20;7.97;;;5.10;;
4732;SDS011;2380;53.668;10.008;2023-08-12T04:48:49;8.10;;;5.53;;
4732;SDS011;2380;53.668;10.008;2023-08-12T04:51:19;11.30;;;5.50;;
4732;SDS011;2380;53.668;10.008;2023-08-12T04:53:51;7.10;;;5.60;;
4732;SDS011;2380;53.668;10.008;2023-08-12T04:56:21;5.90;;;4.13;;
4732;SDS011;2380;53.668;10.008;2023-08-12T04:58:51;6.03;;;3.93;;
4732;SDS011;2380;53.668;10.008;2023-08-12T05:01:21;4.90;;;3.83;;
4732;SDS011;2380;53.668;10.008;2023-08-12T05:03:51;7.53;;;3.90;;
4732;SDS011;2380;53.668;10.008;2023-08-12T05:06:20;6.20;;;4.60;;
4732;SDS011;2380;53.668;10.008;2023-08-12T05:08:53;9.43;;;5.07;;
4732;SDS011;2380;53.668;10.008;2023-08-12T05:11:23;7.10;;;5.00;;
4732;SDS011;2380;53.668;10.008;2023-08-12T05:13:53;6.50;;;4.50;;
4732;SDS011;2380;53.668;10.008;2023-08-12T05:16:22;5.70;;;4.07;;
4732;SDS011;2380;53.668;10.008;2023-08-12T05:18:52;7.67;;;4.30;;
4732;SDS011;2380;53.668;10.008;2023-08-12T05:21:22;6.47;;;4.40;;
4732;SDS011;2380;53.668;10.008;2023-08-12T05:23:54;6.60;;;4.50;;
4732;SDS011;2380;53.668;10.008;2023-08-12T05:26:24;9.13;;;4.83;;
4732;SDS011;2380;53.668;10.008;2023-08-12T05:28:59;9.60;;;6.10;;
4732;SDS011;2380;53.668;10.008;2023-08-12T05:31:29;6.53;;;4.63;;
4732;SDS011;2380;53.668;10.008;2023-08-12T05:33:59;7.30;;;4.40;;
4732;SDS011;2380;53.668;10.008;2023-08-12T05:36:29;10.77;;;4.53;;
4732;SDS011;2380;53.668;10.008;2023-08-12T05:39:01;5.90;;;4.33;;
4732;SDS011;2380;53.668;10.008;2023-08-12T05:41:31;6.70;;;4.40;;
4732;SDS011;2380;53.668;10.008;2023-08-12T05:44:00;8.40;;;5.37;;
4732;SDS011;2380;53.668;10.008;2023-08-12T05:46:30;13.33;;;6.50;;
4732;SDS011;2380;53.668;10.008;2023-08-12T05:49:00;9.33;;;5.90;;
4732;SDS011;2380;53.668;10.008;2023-08-12T05:51:29;6.53;;;5.50;;
4732;SDS011;2380;53.668;10.008;2023-08-12T05:54:02;10.00;;;6.67;;
4732;SDS011;2380;53.668;10.008;2023-08-12T05:56:32;9.47;;;7.27;;
4732;SDS011;2380;53.668;10.008;2023-08-12T05:59:01;13.20;;;7.27;;
4732;SDS011;2380;53.668;10.008;2023-08-12T06:01:31;11.23;;;7.47;;
4732;SDS011;2380;53.668;10.008;2023-08-12T06:04:01;12.17;;;7.87;;
4732;SDS011;2380;53.668;10.008;2023-08-12T06:06:31;10.57;;;6.97;;
4732;SDS011;2380;53.668;10.008;2023-08-12T06:09:03;10.53;;;7.10;;
4732;SDS011;2380;53.668;10.008;2023-08-12T06:11:33;8.67;;;7.00;;
4732;SDS011;2380;53.668;10.008;2023-08-12T06:14:02;15.83;;;8.10;;
4732;SDS011;2380;53.668;10.008;2023-08-12T06:16:32;9.87;;;7.37;;
4732;SDS011;2380;53.668;10.008;2023-08-12T06:19:02;10.87;;;7.60;;
4732;SDS011;2380;53.668;10.008;2023-08-12T06:21:32;9.60;;;7.63;;
4732;SDS011;2380;53.668;10.008;2023-08-12T06:24:04;12.97;;;8.20;;
4732;SDS011;2380;53.668;10.008;2023-08-12T06:26:35;9.53;;;8.13;;
4732;SDS011;2380;53.668;10.008;2023-08-12T06:29:04;12.70;;;7.90;;
4732;SDS011;2380;53.668;10.008;2023-08-12T06:31:34;31.20;;;8.83;;
4732;SDS011;2380;53.668;10.008;2023-08-12T06:34:04;12.90;;;8.10;;
4732;SDS011;2380;53.668;10.008;2023-08-12T06:36:33;11.53;;;7.77;;
4732;SDS011;2380;53.668;10.008;2023-08-12T06:39:05;10.90;;;8.00;;
4732;SDS011;2380;53.668;10.008;2023-08-12T06:41:35;11.43;;;7.80;;
4732;SDS011;2380;53.668;10.008;2023-08-12T06:44:06;17.70;;;11.57;;
4732;SDS011;2380;53.668;10.008;2023-08-12T06:46:35;13.27;;;9.77;;
4732;SDS011;2380;53.668;10.008;2023-08-12T06:49:05;10.80;;;8.93;;
4732;SDS011;2380;53.668;10.008;2023-08-12T06:51:35;14.43;;;9.10;;
4732;SDS011;2380;53.668;10.008;2023-08-12T06:54:07;33.33;;;18.43;;
4732;SDS011;2380;53.668;10.008;2023-08-12T06:56:37;11.67;;;9.43;;
4732;SDS011;2380;53.668;10.008;2023-08-12T06:59:06;11.47;;;9.27;;
4732;SDS011;2380;53.668;10.008;2023-08-12T07:01:36;13.10;;;9.83;;
4732;SDS011;2380;53.668;10.008;2023-08-12T07:04:06;23.20;;;15.23;;
4732;SDS011;2380;53.668;10.008;2023-08-12T07:06:36;14.63;;;10.87;;
4732;SDS011;2380;53.668;10.008;2023-08-12T07:09:08;18.93;;;10.90;;
4732;SDS011;2380;53.668;10.008;2023-08-12T07:11:38;19.10;;;12.70;;
4732;SDS011;2380;53.668;10.008;2023-08-12T07:14:07;16.43;;;11.33;;
4732;SDS011;2380;53.668;10.008;2023-08-12T07:16:37;18.00;;;12.47;;
4732;SDS011;2380;53.668;10.008;2023-08-12T07:19:07;21.17;;;12.70;;
4732;SDS011;2380;53.668;10.008;2023-08-12T07:21:39;22.90;;;14.40;;
4732;SDS011;2380;53.668;10.008;2023-08-12T07:24:11;26.73;;;17.70;;
4732;SDS011;2380;53.668;10.008;2023-08-12T07:26:41;18.87;;;14.00;;
4732;SDS011;2380;53.668;10.008;2023-08-12T07:29:10;19.70;;;12.97;;
4732;SDS011;2380;53.668;10.008;2023-08-12T07:31:40;14.03;;;12.13;;
4732;SDS011;2380;53.668;10.008;2023-08-12T07:34:10;13.00;;;10.47;;
4732;SDS011;2380;53.668;10.008;2023-08-12T07:36:40;15.67;;;10.80;;
4732;SDS011;2380;53.668;10.008;2023-08-12T07:39:13;15.67;;;11.60;;
4732;SDS011;2380;53.668;10.008;2023-08-12T07:41:42;15.43;;;10.80;;
4732;SDS011;2380;53.668;10.008;2023-08-12T07:44:12;15.43;;;12.80;;
4732;SDS011;2380;53.668;10.008;2023-08-12T07:46:42;15.97;;;10.77;;
4732;SDS011;2380;53.668;10.008;2023-08-12T07:49:12;17.60;;;11.83;;
4732;SDS011;2380;53.668;10.008;2023-08-12T07:51:42;35.60;;;23.50;;
4732;SDS011;2380;53.668;10.008;2023-08-12T07:54:14;17.37;;;13.33;;
4732;SDS011;2380;53.668;10.008;2023-08-12T07:56:43;22.63;;;15.20;;
4732;SDS011;2380;53.668;10.008;2023-08-12T07:59:13;19.53;;;14.53;;
4732;SDS011;2380;53.668;10.008;2023-08-12T08:01:43;17.73;;;12.50;;
4732;SDS011;2380;53.668;10.008;2023-08-12T08:04:12;13.63;;;10.63;;
4732;SDS011;2380;53.668;10.008;2023-08-12T08:06:42;15.77;;;11.10;;
4732;SDS011;2380;53.668;10.008;2023-08-12T08:09:17;13.10;;;9.67;;
4732;SDS011;2380;53.668;10.008;2023-08-12T08:11:46;14.90;;;10.33;;
4732;SDS011;2380;53.668;10.008;2023-08-12T08:14:16;12.57;;;9.53;;
4732;SDS011;2380;53.668;10.008;2023-08-12T08:16:46;12.90;;;10.40;;
4732;SDS011;2380;53.668;10.008;2023-08-12T08:19:16;14.00;;;10.00;;
4732;SDS011;2380;53.668;10.008;2023-08-12T08:21:46;13.37;;;9.43;;
4732;SDS011;2380;53.668;10.008;2023-08-12T08:24:18;11.60;;;10.37;;
4732;SDS011;2380;53.668;10.008;2023-08-12T08:26:48;14.33;;;9.87;;
4732;SDS011;2380;53.668;10.008;2023-08-12T08:29:17;13.43;;;9.80;;
4732;SDS011;2380;53.668;10.008;2023-08-12T08:31:47;12.93;;;9.20;;
4732;SDS011;2380;53.668;10.008;2023-08-12T08:34:17;14.00;;;10.10;;
4732;SDS011;2380;53.668;10.008;2023-08-12T08:36:46;12.97;;;9.00;;
4732;SDS011;2380;53.668;10.008;2023-08-12T08:39:20;11.00;;;9.40;;
4732;SDS011;2380;53.668;10.008;2023-08-12T08:41:51;13.53;;;8.43;;
4732;SDS011;2380;53.668;10.008;2023-08-12T08:44:23;13.53;;;9.00;;
4732;SDS011;2380;53.668;10.008;2023-08-12T08:46:52;12.13;;;9.43;;
4732;SDS011;2380;53.668;10.008;2023-08-12T08:49:22;11.80;;;8.90;;
4732;SDS011;2380;53.668;10.008;2023-08-12T08:51:52;11.90;;;8.63;;
4732;SDS011;2380;53.668;10.008;2023-08-12T08:54:24;10.70;;;9.00;;
4732;SDS011;2380;53.668;10.008;2023-08-12T08:56:54;9.93;;;7.40;;
4732;SDS011;2380;53.668;10.008;2023-08-12T08:59:39;12.80;;;9.37;;
4732;SDS011;2380;53.668;10.008;2023-08-12T09:02:10;15.20;;;9.67;;
4732;SDS011;2380;53.668;10.008;2023-08-12T09:04:44;17.40;;;12.80;;
4732;SDS011;2380;53.668;10.008;2023-08-12T09:07:15;25.90;;;16.43;;
4732;SDS011;2380;53.668;10.008;2023-08-12T09:09:47;12.67;;;8.00;;
4732;SDS011;2380;53.668;10.008;2023-08-12T09:12:18;13.40;;;9.10;;
4732;SDS011;2380;53.668;10.008;2023-08-12T09:14:49;15.27;;;8.43;;
4732;SDS011;2380;53.668;10.008;2023-08-12T09:17:18;12.30;;;8.70;;
4732;SDS011;2380;53.668;10.008;2023-08-12T09:19:48;15.10;;;8.57;;
4732;SDS011;2380;53.668;10.008;2023-08-12T09:22:18;10.13;;;6.63;;
4732;SDS011;2380;53.668;10.008;2023-08-12T09:24:52;8.10;;;7.03;;
4732;SDS011;2380;53.668;10.008;2023-08-12T09:27:25;9.63;;;7.13;;
4732;SDS011;2380;53.668;10.008;2023-08-12T09:29:55;32.83;;;23.50;;
4732;SDS011;2380;53.668;10.008;2023-08-12T09:32:25;24.90;;;17.20;;
4732;SDS011;2380;53.668;10.008;2023-08-12T09:34:55;25.53;;;16.47;;
4732;SDS011;2380;53.668;10.008;2023-08-12T09:37:28;13.20;;;9.70;;
4732;SDS011;2380;53.668;10.008;2023-08-12T09:40:00;18.00;;;9.73;;
4732;SDS011;2380;53.668;10.008;2023-08-12T09:42:32;11.30;;;8.30;;
4732;SDS011;2380;53.668;10.008;2023-08-12T09:45:02;18.20;;;9.30;;
4732;SDS011;2380;53.668;10.008;2023-08-12T09:47:33;10.07;;;7.67;;
4732;SDS011;2380;53.668;10.008;2023-08-12T09:50:03;12.00;;;7.83;;
4732;SDS011;2380;53.668;10.008;2023-08-12T09:52:33;11.60;;;8.30;;
4732;SDS011;2380;53.668;10.008;2023-08-12T09:55:07;13.87;;;8.43;;
4732;SDS011;2380;53.668;10.008;2023-08-12T09:57:37;10.27;;;7.97;;
4732;SDS011;2380;53.668;10.008;2023-08-12T10:00:10;17.47;;;10.40;;
4732;SDS011;2380;53.668;10.008;2023-08-12T10:02:46;18.07;;;10.20;;
4732;SDS011;2380;53.668;10.008;2023-08-12T10:05:19;13.33;;;9.83;;
4732;SDS011;2380;53.668;10.008;2023-08-12T10:07:52;15.53;;;10.27;;
4732;SDS011;2380;53.668;10.008;2023-08-12T10:10:25;23.13;;;13.13;;
4732;SDS011;2380;53.668;10.008;2023-08-12T10:12:54;12.23;;;8.43;;
4732;SDS011;2380;53.668;10.008;2023-08-12T10:15:24;13.80;;;9.33;;
4732;SDS011;2380;53.668;10.008;2023-08-12T10:17:55;10.07;;;7.67;;
4732;SDS011;2380;53.668;10.008;2023-08-12T10:20:25;10.83;;;8.17;;
4732;SDS011;2380;53.668;10.008;2023-08-12T10:22:55;14.80;;;8.73;;
4732;SDS011;2380;53.668;10.008;2023-08-12T10:25:29;13.77;;;10.27;;
4732;SDS011;2380;53.668;10.008;2023-08-12T10:28:01;23.83;;;16.17;;
4732;SDS011;2380;53.668;10.008;2023-08-12T10:30:31;13.73;;;8.93;;
4732;SDS011;2380;53.668;10.008;2023-08-12T10:33:01;17.50;;;11.20;;
4732;SDS011;2380;53.668;10.008;2023-08-12T10:35:40;13.57;;;9.50;;
4732;SDS011;2380;53.668;10.008;2023-08-12T10:38:11;16.20;;;9.57;;
4732;SDS011;2380;53.668;10.008;2023-08-12T10:40:45;13.30;;;10.00;;
4732;SDS011;2380;53.668;10.008;2023-08-12T10:43:14;16.40;;;10.77;;
4732;SDS011;2380;53.668;10.008;2023-08-12T10:45:46;13.57;;;8.77;;
4732;SDS011;2380;53.668;10.008;2023-08-12T10:48:17;14.60;;;8.80;;
4732;SDS011;2380;53.668;10.008;2023-08-12T10:50:49;13.07;;;8.40;;
4732;SDS011;2380;53.668;10.008;2023-08-12T10:53:25;10.37;;;7.97;;
4732;SDS011;2380;53.668;10.008;2023-08-12T10:55:59;13.77;;;7.70;;
4732;SDS011;2380;53.668;10.008;2023-08-12T10:58:33;11.23;;;7.80;;
4732;SDS011;2380;53.668;10.008;2023-08-12T11:01:03;11.10;;;7.60;;
4732;SDS011;2380;53.668;10.008;2023-08-12T11:03:41;10.33;;;6.73;;
4732;SDS011;2380;53.668;10.008;2023-08-12T11:06:12;14.93;;;7.67;;
4732;SDS011;2380;53.668;10.008;2023-08-12T11:08:45;11.07;;;7.50;;
4732;SDS011;2380;53.668;10.008;2023-08-12T11:11:21;9.80;;;7.03;;
4732;SDS011;2380;53.668;10.008;2023-08-12T11:13:52;9.63;;;7.07;;
4732;SDS011;2380;53.668;10.008;2023-08-12T11:16:31;10.03;;;6.67;;
4732;SDS011;2380;53.668;10.008;2023-08-12T11:19:01;9.40;;;6.33;;
4732;SDS011;2380;53.668;10.008;2023-08-12T11:21:35;10.53;;;7.07;;
4732;SDS011;2380;53.668;10.008;2023-08-12T11:24:05;8.30;;;6.33;;
4732;SDS011;2380;53.668;10.008;2023-08-12T11:26:39;9.40;;;6.20;;
4732;SDS011;2380;53.668;10.008;2023-08-12T11:29:09;7.93;;;6.03;;
4732;SDS011;2380;53.668;10.008;2023-08-12T11:31:41;12.73;;;7.77;;
4732;SDS011;2380;53.668;10.008;2023-08-12T11:34:10;9.67;;;6.40;;
4732;SDS011;2380;53.668;10.008;2023-08-12T11:36:41;10.90;;;7.30;;
4732;SDS011;2380;53.668;10.008;2023-08-12T11:39:11;11.90;;;7.90;;
4732;SDS011;2380;53.668;10.008;2023-08-12T11:41:44;11.20;;;7.50;;
4732;SDS011;2380;53.668;10.008;2023-08-12T11:44:14;12.00;;;7.60;;
4732;SDS011;2380;53.668;10.008;2023-08-12T11:46:44;11.50;;;7.77;;
4732;SDS011;2380;53.668;10.008;2023-08-12T11:49:14;11.40;;;7.50;;
4732;SDS011;2380;53.668;10.008;2023-08-12T11:51:43;13.77;;;8.60;;
4732;SDS011;2380;53.668;10.008;2023-08-12T11:54:16;10.83;;;7.40;;
4732;SDS011;2380;53.668;10.008;2023-08-12T11:56:49;13.87;;;9.60;;
4732;SDS011;2380;53.668;10.008;2023-08-12T11:59:20;21.40;;;10.33;;
4732;SDS011;2380;53.668;10.008;2023-08-12T12:01:50;8.87;;;7.10;;
4732;SDS011;2380;53.668;10.008;2023-08-12T12:04:20;17.13;;;8.90;;
4732;SDS011;2380;53.668;10.008;2023-08-12T12:06:50;20.00;;;11.57;;
4732;SDS011;2380;53.668;10.008;2023-08-12T12:09:20;12.83;;;9.77;;
4732;SDS011;2380;53.668;10.008;2023-08-12T12:11:55;16.03;;;11.10;;
4732;SDS011;2380;53.668;10.008;2023-08-12T12:14:24;18.37;;;13.90;;
4732;SDS011;2380;53.668;10.008;2023-08-12T12:16:54;20.97;;;12.10;;
4732;SDS011;2380;53.668;10.008;2023-08-12T12:19:24;20.17;;;12.97;;
4732;SDS011;2380;53.668;10.008;2023-08-12T12:21:54;18.40;;;11.40;;
4732;SDS011;2380;53.668;10.008;2023-08-12T12:24:28;18.53;;;11.30;;
4732;SDS011;2380;53.668;10.008;2023-08-12T12:27:01;22.20;;;13.63;;
4732;SDS011;2380;53.668;10.008;2023-08-12T12:29:31;24.13;;;13.20;;
4732;SDS011;2380;53.668;10.008;2023-08-12T12:32:00;21.43;;;15.00;;
4732;SDS011;2380;53.668;10.008;2023-08-12T12:34:30;25.80;;;13.70;;
4732;SDS011;2380;53.668;10.008;2023-08-12T12:37:00;20.10;;;12.27;;
4732;SDS011;2380;53.668;10.008;2023-08-12T12:39:30;19.07;;;13.20;;
4732;SDS011;2380;53.668;10.008;2023-08-12T12:42:03;19.60;;;13.70;;
4732;SDS011;2380;53.668;10.008;2023-08-12T12:44:32;19.27;;;13.40;;
4732;SDS011;2380;53.668;10.008;2023-08-12T12:47:02;27.03;;;18.70;;
4732;SDS011;2380;53.668;10.008;2023-08-12T12:49:34;21.50;;;15.67;;
4732;SDS011;2380;53.668;10.008;2023-08-12T12:52:03;19.77;;;15.00;;
4732;SDS011;2380;53.668;10.008;2023-08-12T12:54:33;20.93;;;15.57;;
4732;SDS011;2380;53.668;10.008;2023-08-12T12:57:06;41.53;;;26.90;;
4732;SDS011;2380;53.668;10.008;2023-08-12T12:59:35;38.63;;;26.60;;
4732;SDS011;2380;53.668;10.008;2023-08-12T13:02:05;18.07;;;13.30;;
4732;SDS011;2380;53.668;10.008;2023-08-12T13:04:35;28.23;;;16.80;;
4732;SDS011;2380;53.668;10.008;2023-08-12T13:07:04;21.77;;;14.83;;
4732;SDS011;2380;53.668;10.008;2023-08-12T13:09:34;22.30;;;14.27;;
4732;SDS011;2380;53.668;10.008;2023-08-12T13:12:08;17.80;;;13.70;;
4732;SDS011;2380;53.668;10.008;2023-08-12T13:14:39;20.20;;;13.03;;
4732;SDS011;2380;53.668;10.008;2023-08-12T13:17:09;18.30;;;12.10;;
4732;SDS011;2380;53.668;10.008;2023-08-12T13:19:38;15.90;;;11.70;;
4732;SDS011;2380;53.668;10.008;2023-08-12T13:22:08;19.93;;;13.57;;
4732;SDS011;2380;53.668;10.008;2023-08-12T13:24:40;20.97;;;12.77;;
4732;SDS011;2380;53.668;10.008;2023-08-12T13:27:13;17.50;;;12.60;;
4732;SDS011;2380;53.668;10.008;2023-08-12T13:29:43;19.20;;;12.53;;
4732;SDS011;2380;53.668;10.008;2023-08-12T13:32:13;16.87;;;11.73;;
4732;SDS011;2380;53.668;10.008;2023-08-12T13:34:43;18.07;;;12.63;;
4732;SDS011;2380;53.668;10.008;2023-08-12T13:37:14;17.73;;;12.30;;
4732;SDS011;2380;53.668;10.008;2023-08-12T13:39:44;18.53;;;12.33;;
4732;SDS011;2380;53.668;10.008;2023-08-12T13:42:16;15.43;;;12.57;;
4732;SDS011;2380;53.668;10.008;2023-08-12T13:44:46;15.63;;;11.60;;
4732;SDS011;2380;53.668;10.008;2023-08-12T13:47:15;14.30;;;11.30;;
4732;SDS011;2380;53.668;10.008;2023-08-12T13:49:45;13.83;;;9.80;;
4732;SDS011;2380;53.668;10.008;2023-08-12T13:52:15;15.70;;;11.30;;
4732;SDS011;2380;53.668;10.008;2023-08-12T13:54:44;16.37;;;10.60;;
4732;SDS011;2380;53.668;10.008;2023-08-12T13:57:17;12.20;;;9.93;;
4732;SDS011;2380;53.668;10.008;2023-08-12T13:59:46;12.53;;;10.43;;
4732;SDS011;2380;53.668;10.008;2023-08-12T14:02:16;14.10;;;11.77;;
4732;SDS011;2380;53.668;10.008;2023-08-12T14:04:45;15.33;;;11.00;;
4732;SDS011;2380;53.668;10.008;2023-08-12T14:07:15;14.87;;;10.57;;
4732;SDS011;2380;53.668;10.008;2023-08-12T14:09:46;13.17;;;10.73;;
4732;SDS011;2380;53.668;10.008;2023-08-12T14:12:19;14.87;;;12.07;;
4732;SDS011;2380;53.668;10.008;2023-08-12T14:14:49;16.10;;;12.63;;
4732;SDS011;2380;53.668;10.008;2023-08-12T14:17:18;15.67;;;12.37;;
4732;SDS011;2380;53.668;10.008;2023-08-12T14:19:49;14.60;;;11.33;;
4732;SDS011;2380;53.668;10.008;2023-08-12T14:22:20;17.70;;;12.70;;
4732;SDS011;2380;53.668;10.008;2023-08-12T14:24:49;16.53;;;13.10;;
4732;SDS011;2380;53.668;10.008;2023-08-12T14:27:25;15.57;;;11.80;;
4732;SDS011;2380;53.668;10.008;2023-08-12T14:29:54;14.23;;;11.17;;
4732;SDS011;2380;53.668;10.008;2023-08-12T14:32:24;13.43;;;11.30;;
4732;SDS011;2380;53.668;10.008;2023-08-12T14:34:54;16.10;;;12.37;;
4732;SDS011;2380;53.668;10.008;2023-08-12T14:37:24;13.67;;;11.20;;
4732;SDS011;2380;53.668;10.008;2023-08-12T14:39:54;15.30;;;10.80;;
4732;SDS011;2380;53.668;10.008;2023-08-12T14:42:27;11.60;;;9.30;;
4732;SDS011;2380;53.668;10.008;2023-08-12T14:44:56;14.97;;;10.97;;
4732;SDS011;2380;53.668;10.008;2023-08-12T14:47:26;17.77;;;12.40;;
4732;SDS011;2380;53.668;10.008;2023-08-12T14:49:56;15.63;;;11.30;;
4732;SDS011;2380;53.668;10.008;2023-08-12T14:52:26;16.00;;;11.57;;
4732;SDS011;2380;53.668;10.008;2023-08-12T14:54:56;18.40;;;11.77;;
4732;SDS011;2380;53.668;10.008;2023-08-12T14:57:28;16.30;;;11.30;;
4732;SDS011;2380;53.668;10.008;2023-08-12T14:59:58;15.77;;;11.33;;
4732;SDS011;2380;53.668;10.008;2023-08-12T15:02:27;56.63;;;38.37;;
4732;SDS011;2380;53.668;10.008;2023-08-12T15:04:59;31.60;;;20.73;;
4732;SDS011;2380;53.668;10.008;2023-08-12T15:07:29;29.27;;;17.60;;